Time;durP1;ratioP1;P1;durP2;ratioP2;P2;SDS_P1;SDS_P2;PMS_P1;PMS_P2;Temp;Humidity;BMP_temperature;BMP_pressure;BME280_temperature;BME280_humidity;BME280_pressure;Samples;Min_cycle;Max_cycle;Signal;HPM_P1;HPM_P2
2021/01/31 00:00:52;;;;;;;8.93;8.03;;;4.20;95.20;;;;;;5072747;28;20173;-81
2021/01/31 00:03:26;;;;;;;10.10;8.10;;;4.20;95.00;;;;;;5070551;28;20643;-77
2021/01/31 00:05:54;;;;;;;10.27;8.35;;;4.20;95.00;;;;;;5073112;28;20409;-77
2021/01/31 00:08:22;;;;;;;9.32;8.30;;;4.10;95.10;;;;;;5056575;28;20182;-77
2021/01/31 00:10:49;;;;;;;9.45;8.18;;;4.20;95.30;;;;;;5053018;28;20169;-76
2021/01/31 00:13:16;;;;;;;9.65;8.55;;;4.10;95.50;;;;;;5050558;28;20292;-76
2021/01/31 00:15:47;;;;;;;9.73;8.50;;;4.00;95.80;;;;;;5051159;28;20200;-76
2021/01/31 00:18:15;;;;;;;9.40;8.27;;;4.10;95.60;;;;;;5054386;28;20189;-78
2021/01/31 00:20:48;;;;;;;8.85;8.05;;;4.10;95.60;;;;;;5062231;28;20180;-76
2021/01/31 00:23:14;;;;;;;10.50;8.25;;;4.00;95.20;;;;;;5060653;28;20245;-77
2021/01/31 00:25:41;;;;;;;9.95;8.95;;;4.00;95.20;;;;;;5060230;28;20181;-79
2021/01/31 00:28:06;;;;;;;10.80;9.10;;;4.00;95.70;;;;;;5066483;28;20337;-76
2021/01/31 00:30:37;;;;;;;8.87;7.97;;;4.00;95.40;;;;;;5034358;28;20219;-77
2021/01/31 00:33:09;;;;;;;8.73;7.88;;;4.00;95.40;;;;;;5041401;28;20177;-76
2021/01/31 00:35:37;;;;;;;8.80;7.90;;;4.00;95.40;;;;;;5040378;28;20174;-76
2021/01/31 00:38:04;;;;;;;10.70;8.55;;;4.00;95.20;;;;;;5014070;28;20649;-82
2021/01/31 00:40:30;;;;;;;9.55;8.50;;;4.00;95.30;;;;;;5032504;28;20232;-81
2021/01/31 00:42:56;;;;;;;9.63;8.60;;;4.00;95.60;;;;;;5032620;28;20190;-81
2021/01/31 00:45:24;;;;;;;9.33;8.37;;;4.00;95.50;;;;;;5030719;28;20427;-80
2021/01/31 00:47:50;;;;;;;8.95;7.15;;;4.10;95.30;;;;;;4997668;28;20190;-78
2021/01/31 00:50:18;;;;;;;9.17;8.27;;;4.00;95.10;;;;;;5013793;28;20217;-77
2021/01/31 00:52:44;;;;;;;10.70;7.68;;;4.10;95.10;;;;;;5014523;28;20893;-78
2021/01/31 00:55:11;;;;;;;11.20;8.37;;;4.00;94.80;;;;;;4997170;28;20188;-77
2021/01/31 00:57:36;;;;;;;10.68;7.95;;;4.00;94.80;;;;;;5014179;28;20902;-77
2021/01/31 01:00:29;;;;;;;9.77;8.43;;;4.10;95.00;;;;;;5031218;28;20185;-81
2021/01/31 01:02:54;;;;;;;9.60;8.13;;;4.10;94.80;;;;;;5036148;28;20187;-77
2021/01/31 01:05:23;;;;;;;9.50;8.60;;;4.00;94.80;;;;;;5051225;28;20173;-77
2021/01/31 01:07:49;;;;;;;9.02;8.10;;;4.00;95.20;;;;;;5051913;28;20640;-77
2021/01/31 01:10:18;;;;;;;8.10;7.30;;;4.10;95.00;;;;;;5033178;28;20228;-77
2021/01/31 01:12:43;;;;;;;9.82;8.93;;;4.10;95.10;;;;;;5030701;28;20410;-77
2021/01/31 01:15:12;;;;;;;11.23;8.10;;;4.00;95.40;;;;;;5043227;28;20600;-78
2021/01/31 01:17:37;;;;;;;9.43;7.75;;;4.10;95.10;;;;;;5051390;28;20465;-77
2021/01/31 01:20:06;;;;;;;11.33;7.63;;;4.10;95.00;;;;;;5033568;28;20188;-81
2021/01/31 01:22:32;;;;;;;9.98;7.55;;;4.00;95.30;;;;;;5051986;28;20173;-77
2021/01/31 01:25:02;;;;;;;7.43;6.68;;;4.00;95.00;;;;;;5032516;28;20629;-77
2021/01/31 01:27:29;;;;;;;8.98;7.80;;;4.10;94.80;;;;;;5030689;28;20222;-81
2021/01/31 01:29:56;;;;;;;9.25;7.63;;;4.00;94.60;;;;;;5032885;28;20279;-77
2021/01/31 01:32:22;;;;;;;9.07;8.15;;;4.10;94.80;;;;;;5023928;28;20184;-78
2021/01/31 01:34:48;;;;;;;8.30;7.50;;;4.10;94.30;;;;;;5021689;28;20190;-80
2021/01/31 01:37:14;;;;;;;9.90;8.03;;;4.00;94.40;;;;;;5040860;28;20420;-79
2021/01/31 01:39:40;;;;;;;9.65;7.75;;;4.10;94.40;;;;;;5040312;28;20185;-79
2021/01/31 01:42:08;;;;;;;9.20;7.90;;;4.10;94.20;;;;;;5021774;28;20181;-79
2021/01/31 01:44:35;;;;;;;8.65;7.10;;;4.00;94.20;;;;;;5020145;28;20190;-80
2021/01/31 01:47:03;;;;;;;9.90;7.97;;;4.00;94.20;;;;;;5022717;28;20185;-80
2021/01/31 01:49:49;;;;;;;8.60;7.75;;;4.00;94.20;;;;;;5038376;28;20279;-81
2021/01/31 01:52:33;;;;;;;9.25;7.50;;;4.00;94.10;;;;;;5022936;28;20200;-80
2021/01/31 01:55:04;;;;;;;8.95;6.90;;;3.90;94.20;;;;;;5040017;28;20695;-82
2021/01/31 01:57:38;;;;;;;8.50;7.60;;;3.90;94.20;;;;;;5019871;28;20200;-81
2021/01/31 02:00:05;;;;;;;8.68;7.70;;;3.90;93.90;;;;;;5040575;28;20174;-79
2021/01/31 02:02:50;;;;;;;10.70;8.38;;;3.90;94.00;;;;;;5038579;28;20903;-80
2021/01/31 02:05:16;;;;;;;10.30;8.38;;;3.90;94.00;;;;;;5038919;28;20177;-80
2021/01/31 02:07:45;;;;;;;8.73;7.93;;;3.90;93.90;;;;;;5036723;28;20182;-79
2021/01/31 02:10:13;;;;;;;8.40;7.55;;;3.80;94.30;;;;;;5036202;28;20448;-84
2021/01/31 02:12:39;;;;;;;8.80;7.90;;;3.80;94.40;;;;;;5038873;28;20649;-80
2021/01/31 02:15:06;;;;;;;8.85;7.45;;;3.90;94.40;;;;;;5022446;28;20196;-80
2021/01/31 02:18:03;;;;;;;8.50;7.60;;;3.90;94.30;;;;;;5039160;28;20166;-80
2021/01/31 02:20:50;;;;;;;8.00;7.20;;;3.90;94.10;;;;;;5022488;28;20380;-80
2021/01/31 02:23:33;;;;;;;8.95;7.50;;;3.90;94.30;;;;;;5035731;28;20189;-80
2021/01/31 02:26:36;;;;;;;9.98;7.65;;;3.80;94.70;;;;;;5013886;28;20174;-79
2021/01/31 02:29:19;;;;;;;8.98;8.00;;;3.80;94.70;;;;;;4994482;28;20232;-80
2021/01/31 02:32:08;;;;;;;8.82;7.93;;;3.80;94.50;;;;;;5060778;28;20180;-81
2021/01/31 02:34:45;;;;;;;9.88;7.68;;;3.80;94.40;;;;;;5060442;28;20179;-80
2021/01/31 02:37:26;;;;;;;9.80;8.25;;;3.80;94.50;;;;;;5060458;28;20246;-83
2021/01/31 02:40:18;;;;;;;8.88;7.97;;;3.80;93.90;;;;;;5074626;28;20631;-79
2021/01/31 02:42:55;;;;;;;8.68;7.68;;;3.70;94.10;;;;;;5074823;28;20172;-79
2021/01/31 02:45:24;;;;;;;9.95;8.15;;;3.80;94.10;;;;;;5071195;28;20220;-80
2021/01/31 02:48:01;;;;;;;9.98;7.72;;;3.80;94.40;;;;;;5063125;28;20639;-80
2021/01/31 02:50:38;;;;;;;10.35;8.43;;;3.80;94.60;;;;;;5072387;28;20217;-79
2021/01/31 02:53:18;;;;;;;8.18;7.05;;;3.80;94.60;;;;;;5073267;28;20175;-80
2021/01/31 02:55:47;;;;;;;8.73;7.82;;;3.80;94.30;;;;;;5073124;28;20238;-80
2021/01/31 02:58:26;;;;;;;9.77;7.97;;;3.80;94.40;;;;;;5073005;28;20180;-79
2021/01/31 03:01:00;;;;;;;8.82;7.40;;;3.80;94.10;;;;;;5074429;28;20197;-79
2021/01/31 03:03:38;;;;;;;8.80;7.53;;;3.70;94.20;;;;;;5073231;28;20604;-80
2021/01/31 03:06:09;;;;;;;6.97;6.28;;;3.60;94.10;;;;;;5057619;28;20176;-79
2021/01/31 03:08:40;;;;;;;8.38;7.25;;;3.70;93.70;;;;;;5052086;28;20170;-79
2021/01/31 03:11:18;;;;;;;8.50;7.18;;;3.70;93.50;;;;;;5053778;28;20598;-79
2021/01/31 03:13:55;;;;;;;8.93;6.60;;;3.50;93.40;;;;;;5052525;28;20237;-79
2021/01/31 03:16:33;;;;;;;8.45;7.60;;;3.50;93.50;;;;;;5070306;28;20187;-85
2021/01/31 03:19:08;;;;;;;9.10;7.93;;;3.50;93.40;;;;;;5073712;28;20221;-80
2021/01/31 03:21:36;;;;;;;8.95;7.45;;;3.30;93.20;;;;;;5073200;28;20185;-79
2021/01/31 03:24:12;;;;;;;8.23;7.00;;;3.00;93.80;;;;;;5072602;28;20246;-79
2021/01/31 03:26:46;;;;;;;7.72;6.70;;;2.90;94.40;;;;;;5072612;28;20577;-79
2021/01/31 03:29:12;;;;;;;7.30;6.60;;;2.70;94.40;;;;;;5061338;28;20266;-80
2021/01/31 03:31:43;;;;;;;8.73;7.22;;;2.40;95.20;;;;;;5035025;28;20175;-79
2021/01/31 03:34:12;;;;;;;8.82;8.02;;;2.20;95.60;;;;;;5035902;28;20202;-79
2021/01/31 03:36:50;;;;;;;9.05;7.75;;;2.00;96.10;;;;;;5052602;28;20175;-80
2021/01/31 03:39:16;;;;;;;8.20;7.20;;;1.90;96.70;;;;;;5052420;28;20196;-80
2021/01/31 03:41:42;;;;;;;9.35;7.80;;;2.00;96.90;;;;;;5052353;28;20654;-80
2021/01/31 03:44:08;;;;;;;9.98;8.20;;;2.20;96.80;;;;;;5045889;28;20221;-82
2021/01/31 03:46:48;;;;;;;11.02;8.05;;;2.20;96.60;;;;;;5037992;28;20194;-83
2021/01/31 03:49:27;;;;;;;7.28;6.57;;;2.20;96.40;;;;;;5053408;28;20201;-79
2021/01/31 03:51:53;;;;;;;7.75;6.82;;;2.30;96.50;;;;;;5032699;28;20194;-79
2021/01/31 03:54:19;;;;;;;8.85;7.57;;;2.30;96.20;;;;;;5033364;28;20175;-79
2021/01/31 03:56:57;;;;;;;8.30;7.25;;;2.30;96.10;;;;;;5014606;28;20179;-80
2021/01/31 03:59:39;;;;;;;9.85;8.48;;;2.00;96.10;;;;;;5052243;28;20186;-79
2021/01/31 04:02:08;;;;;;;9.40;7.55;;;1.90;96.70;;;;;;5053197;28;20185;-79
2021/01/31 04:04:44;;;;;;;8.23;7.32;;;1.80;97.00;;;;;;5034135;28;20190;-84
2021/01/31 04:07:15;;;;;;;11.77;8.48;;;1.60;97.30;;;;;;5034737;28;20181;-80
2021/01/31 04:09:41;;;;;;;8.88;7.93;;;1.70;97.70;;;;;;5052206;28;20229;-80
2021/01/31 04:12:11;;;;;;;9.82;8.50;;;1.70;97.50;;;;;;5052966;28;20638;-79
2021/01/31 04:14:50;;;;;;;9.60;8.60;;;1.60;97.70;;;;;;5052340;28;20284;-83
2021/01/31 04:17:16;;;;;;;9.18;7.88;;;1.50;97.70;;;;;;5045611;28;20181;-79
2021/01/31 04:19:42;;;;;;;8.73;7.80;;;1.50;97.90;;;;;;5051504;28;20196;-80
2021/01/31 04:22:07;;;;;;;8.87;7.13;;;1.40;98.10;;;;;;5052792;28;20178;-80
2021/01/31 04:24:33;;;;;;;9.50;8.13;;;1.50;98.20;;;;;;5017736;28;20181;-79
2021/01/31 04:26:59;;;;;;;10.17;8.07;;;1.50;98.40;;;;;;5033753;28;20591;-80
2021/01/31 04:29:26;;;;;;;10.13;8.10;;;1.40;98.10;;;;;;5057893;28;20225;-79
2021/01/31 04:31:52;;;;;;;9.10;7.63;;;1.50;98.20;;;;;;5071744;28;20200;-79
2021/01/31 04:34:18;;;;;;;9.37;7.53;;;1.60;98.20;;;;;;5072587;28;20173;-79
2021/01/31 04:36:43;;;;;;;9.47;7.90;;;1.50;98.00;;;;;;5071761;28;20614;-80
2021/01/31 04:39:10;;;;;;;11.43;8.90;;;1.50;98.00;;;;;;5054247;28;20193;-80
2021/01/31 04:41:39;;;;;;;9.27;8.23;;;1.80;98.00;;;;;;5071520;28;20645;-79
2021/01/31 04:44:07;;;;;;;8.43;7.53;;;1.80;97.50;;;;;;5071560;28;20185;-80
2021/01/31 04:46:56;;;;;;;9.30;7.43;;;1.80;97.00;;;;;;5064493;28;20264;-85
2021/01/31 04:49:50;;;;;;;9.55;7.43;;;1.80;97.10;;;;;;5052440;28;20240;-80
2021/01/31 04:52:59;;;;;;;9.85;7.60;;;1.90;96.90;;;;;;5074672;28;20214;-80
2021/01/31 04:55:38;;;;;;;10.13;7.22;;;2.00;96.90;;;;;;5091174;28;20195;-80
2021/01/31 04:58:22;;;;;;;9.23;8.02;;;2.10;96.60;;;;;;5082530;28;20167;-80
2021/01/31 05:01:00;;;;;;;10.10;8.23;;;2.00;96.30;;;;;;5070734;28;20188;-84
2021/01/31 05:03:28;;;;;;;8.55;7.30;;;2.00;96.20;;;;;;5072149;28;20185;-80
2021/01/31 05:06:08;;;;;;;10.07;7.80;;;1.80;96.50;;;;;;5071263;28;20177;-80
2021/01/31 05:08:33;;;;;;;10.52;8.38;;;2.00;96.70;;;;;;5056576;28;20175;-80
2021/01/31 05:11:46;;;;;;;10.50;8.10;;;2.10;96.30;;;;;;5051033;28;20170;-80
2021/01/31 05:14:58;;;;;;;10.45;7.82;;;2.20;96.10;;;;;;5036323;28;20478;-79
2021/01/31 05:17:24;;;;;;;9.05;7.50;;;2.20;95.60;;;;;;5051317;28;20193;-80
2021/01/31 05:19:50;;;;;;;11.20;8.80;;;2.10;95.80;;;;;;5070775;28;20190;-80
2021/01/31 05:22:25;;;;;;;10.60;8.77;;;2.00;95.60;;;;;;5070020;28;20177;-80
2021/01/31 05:24:54;;;;;;;10.27;8.40;;;1.70;96.10;;;;;;5071083;28;20389;-80
2021/01/31 05:27:28;;;;;;;11.02;8.15;;;1.50;96.70;;;;;;5071951;28;20234;-80
2021/01/31 05:29:54;;;;;;;9.05;8.05;;;1.60;97.20;;;;;;5090810;28;20215;-80
2021/01/31 05:32:19;;;;;;;9.27;8.20;;;1.50;97.20;;;;;;5090851;28;20189;-79
2021/01/31 05:34:54;;;;;;;8.97;8.07;;;1.40;97.20;;;;;;5090538;28;20638;-83
2021/01/31 05:37:24;;;;;;;12.05;8.38;;;1.50;97.30;;;;;;5090498;28;20817;-81
2021/01/31 05:40:04;;;;;;;10.75;8.23;;;1.60;97.40;;;;;;5090257;28;20181;-81
2021/01/31 05:42:33;;;;;;;11.05;8.40;;;1.40;97.10;;;;;;5050706;28;20169;-80
2021/01/31 05:45:19;;;;;;;10.35;8.57;;;1.40;97.30;;;;;;5049401;28;20641;-81
2021/01/31 05:47:48;;;;;;;11.02;8.55;;;1.50;97.40;;;;;;5062583;28;20185;-79
2021/01/31 05:50:34;;;;;;;10.95;8.57;;;1.40;97.20;;;;;;5071133;28;20243;-80
2021/01/31 05:53:30;;;;;;;9.13;7.95;;;1.40;97.30;;;;;;5069518;28;20524;-80
2021/01/31 05:56:22;;;;;;;10.60;8.40;;;1.30;97.50;;;;;;5052979;28;20570;-80
2021/01/31 05:58:49;;;;;;;12.23;8.85;;;1.20;97.60;;;;;;5070314;28;20184;-84
2021/01/31 06:01:15;;;;;;;13.35;8.88;;;1.30;97.70;;;;;;5070532;28;20538;-80
2021/01/31 06:03:42;;;;;;;15.15;11.00;;;1.50;97.70;;;;;;5073641;28;20173;-80
2021/01/31 06:06:12;;;;;;;10.23;9.20;;;1.60;97.40;;;;;;5074610;28;20254;-80
2021/01/31 06:08:40;;;;;;;11.18;8.70;;;1.70;97.10;;;;;;5074747;28;20182;-80
2021/01/31 06:11:17;;;;;;;10.27;9.00;;;1.80;96.90;;;;;;5072839;28;20622;-81
2021/01/31 06:13:43;;;;;;;14.75;11.10;;;1.90;96.60;;;;;;5074005;28;20244;-80
2021/01/31 06:16:19;;;;;;;13.47;9.50;;;1.90;96.50;;;;;;5071860;28;20286;-80
2021/01/31 06:19:00;;;;;;;10.68;8.50;;;1.70;96.30;;;;;;5070296;28;20221;-80
2021/01/31 06:21:38;;;;;;;11.10;8.90;;;1.60;96.30;;;;;;5062348;28;20612;-80
2021/01/31 06:24:18;;;;;;;11.25;8.48;;;1.60;96.60;;;;;;5057040;28;20190;-80
2021/01/31 06:26:44;;;;;;;12.82;8.68;;;1.70;96.50;;;;;;5063058;28;20184;-79
2021/01/31 06:29:39;;;;;;;11.50;8.40;;;1.60;96.30;;;;;;5062105;28;20217;-79
2021/01/31 06:32:10;;;;;;;13.88;7.78;;;1.50;96.40;;;;;;5049959;28;20196;-80
2021/01/31 06:34:38;;;;;;;14.32;8.90;;;1.20;96.90;;;;;;5020459;28;20534;-79
2021/01/31 06:37:13;;;;;;;11.70;9.50;;;1.20;97.10;;;;;;5053939;28;20174;-78
2021/01/31 06:39:53;;;;;;;11.38;9.05;;;1.00;97.40;;;;;;5036617;28;20228;-79
2021/01/31 06:42:37;;;;;;;11.95;9.02;;;1.10;97.80;;;;;;5056261;28;20703;-79
2021/01/31 06:45:19;;;;;;;11.10;8.25;;;1.20;97.50;;;;;;5055898;28;20519;-79
2021/01/31 06:48:35;;;;;;;10.38;8.93;;;1.30;97.30;;;;;;5027661;28;20190;-79
2021/01/31 06:51:09;;;;;;;9.05;8.10;;;1.40;97.10;;;;;;4997736;28;20213;-80
2021/01/31 06:53:54;;;;;;;13.07;9.40;;;1.40;96.70;;;;;;5054284;28;20169;-78
2021/01/31 06:56:37;;;;;;;9.45;8.45;;;1.50;96.50;;;;;;5054166;28;20173;-79
2021/01/31 06:59:14;;;;;;;13.80;9.00;;;1.70;96.40;;;;;;5034268;28;20607;-79
2021/01/31 07:01:55;;;;;;;10.35;8.65;;;1.80;96.40;;;;;;5014199;28;20268;-79
2021/01/31 07:04:23;;;;;;;12.77;9.73;;;1.90;96.10;;;;;;5016431;28;20157;-79
2021/01/31 07:07:23;;;;;;;10.38;9.20;;;1.90;95.70;;;;;;5033977;28;20678;-83
2021/01/31 07:09:51;;;;;;;12.23;8.85;;;2.00;95.20;;;;;;5035872;28;20565;-84
2021/01/31 07:12:28;;;;;;;10.15;9.05;;;2.00;94.80;;;;;;5053126;28;20290;-80
2021/01/31 07:15:08;;;;;;;10.15;8.40;;;2.00;94.80;;;;;;5046133;28;20224;-80
2021/01/31 07:17:39;;;;;;;11.70;9.43;;;2.00;94.80;;;;;;5065947;28;20189;-79
2021/01/31 07:20:16;;;;;;;10.38;9.38;;;1.80;94.50;;;;;;5053013;28;20519;-79
2021/01/31 07:23:22;;;;;;;10.57;8.90;;;1.70;94.70;;;;;;5054020;28;20173;-79
2021/01/31 07:26:00;;;;;;;10.57;9.10;;;1.70;95.00;;;;;;5050192;28;20187;-79
2021/01/31 07:28:34;;;;;;;12.45;9.88;;;1.80;95.10;;;;;;5043345;28;20318;-79
2021/01/31 07:31:10;;;;;;;11.45;8.85;;;1.80;95.20;;;;;;5071429;28;20198;-80
2021/01/31 07:33:43;;;;;;;11.55;9.00;;;1.90;95.10;;;;;;5060137;28;20543;-79
2021/01/31 07:36:25;;;;;;;11.82;9.30;;;2.00;95.00;;;;;;5052918;28;20185;-79
2021/01/31 07:39:12;;;;;;;12.27;9.45;;;2.00;94.90;;;;;;5068329;28;20161;-80
2021/01/31 07:41:51;;;;;;;10.10;8.88;;;2.10;94.60;;;;;;5071525;28;20183;-79
2021/01/31 07:44:22;;;;;;;10.30;8.75;;;2.10;94.40;;;;;;5059343;28;20177;-80
2021/01/31 07:46:48;;;;;;;9.68;8.65;;;2.10;94.30;;;;;;5073696;28;20189;-81
2021/01/31 07:49:14;;;;;;;10.00;9.00;;;2.10;94.30;;;;;;5051021;28;20221;-81
2021/01/31 07:51:40;;;;;;;9.95;8.95;;;2.20;94.20;;;;;;5091981;28;20169;-81
2021/01/31 07:54:23;;;;;;;12.57;9.63;;;2.10;94.00;;;;;;5092441;28;20174;-81
2021/01/31 07:56:50;;;;;;;10.52;8.50;;;2.10;94.20;;;;;;5058175;28;20936;-81
2021/01/31 07:59:19;;;;;;;12.68;10.25;;;2.10;94.20;;;;;;5067155;28;20184;-79
2021/01/31 08:01:52;;;;;;;11.40;9.55;;;2.10;94.20;;;;;;5062755;28;20546;-77
2021/01/31 08:04:19;;;;;;;9.18;8.27;;;2.20;94.40;;;;;;5066807;28;20166;-78
2021/01/31 08:06:51;;;;;;;11.63;9.38;;;2.30;94.20;;;;;;5062456;28;20694;-78
2021/01/31 08:09:37;;;;;;;10.93;9.25;;;2.40;94.10;;;;;;5074728;28;20200;-77
2021/01/31 08:12:07;;;;;;;11.00;8.40;;;2.40;93.90;;;;;;5046143;28;20192;-78
2021/01/31 08:15:11;;;;;;;10.43;8.73;;;2.50;93.90;;;;;;5069983;28;20188;-78
2021/01/31 08:17:41;;;;;;;11.43;8.82;;;2.50;93.90;;;;;;5062298;28;20211;-78
2021/01/31 08:20:27;;;;;;;12.65;9.85;;;2.50;93.90;;;;;;5076408;28;20219;-78
2021/01/31 08:23:11;;;;;;;10.95;8.65;;;2.60;94.00;;;;;;5060176;28;20199;-80
2021/01/31 08:25:56;;;;;;;10.32;8.50;;;2.60;93.80;;;;;;5051733;28;20172;-76
2021/01/31 08:28:30;;;;;;;11.65;8.63;;;2.60;94.00;;;;;;5074857;28;20303;-76
2021/01/31 08:31:05;;;;;;;10.57;8.30;;;2.60;94.00;;;;;;5071380;28;20230;-81
2021/01/31 08:33:37;;;;;;;11.60;8.50;;;2.70;93.80;;;;;;5060044;28;20576;-84
2021/01/31 08:36:03;;;;;;;11.43;8.30;;;2.80;93.80;;;;;;5056599;28;20215;-83
2021/01/31 08:38:30;;;;;;;13.47;9.63;;;2.80;93.90;;;;;;5054806;28;20261;-82
2021/01/31 08:41:08;;;;;;;11.80;9.10;;;2.90;94.00;;;;;;5069753;28;20271;-87
2021/01/31 08:43:47;;;;;;;12.50;9.50;;;2.90;94.30;;;;;;5070796;28;20167;-81
2021/01/31 08:46:26;;;;;;;11.73;9.73;;;3.00;94.20;;;;;;5056793;28;20306;-80
2021/01/31 08:49:00;;;;;;;13.65;9.90;;;3.10;94.00;;;;;;5069493;28;20179;-82
2021/01/31 08:51:30;;;;;;;12.63;9.63;;;3.30;93.70;;;;;;5052405;28;20169;-83
2021/01/31 08:54:17;;;;;;;12.57;9.70;;;3.40;93.40;;;;;;5054838;28;20186;-88
2021/01/31 08:56:56;;;;;;;12.20;9.38;;;3.40;93.30;;;;;;5050714;28;20187;-85
2021/01/31 08:59:27;;;;;;;12.45;10.20;;;3.50;93.10;;;;;;5051412;28;20821;-82
2021/01/31 09:02:11;;;;;;;13.45;9.85;;;3.60;93.20;;;;;;5067947;28;20628;-86
2021/01/31 09:04:45;;;;;;;13.07;10.23;;;3.60;93.40;;;;;;5070760;28;20255;-82
2021/01/31 09:07:19;;;;;;;14.48;10.90;;;3.70;93.40;;;;;;5065087;28;20247;-84
2021/01/31 09:10:10;;;;;;;11.15;9.18;;;3.90;93.50;;;;;;5055291;28;20213;-83
2021/01/31 09:12:36;;;;;;;13.02;9.60;;;5.00;93.10;;;;;;5039751;28;20176;-84
2021/01/31 09:15:23;;;;;;;10.07;8.97;;;6.30;90.50;;;;;;5056309;28;20627;-83
2021/01/31 09:17:49;;;;;;;10.90;9.40;;;7.10;85.30;;;;;;5061376;28;20180;-83
2021/01/31 09:20:27;;;;;;;11.57;9.40;;;7.80;81.60;;;;;;5058631;28;21026;-83
2021/01/31 09:23:00;;;;;;;12.30;10.60;;;8.30;78.30;;;;;;5071408;28;20417;-83
2021/01/31 09:25:27;;;;;;;12.90;11.60;;;8.80;74.40;;;;;;5038020;28;20773;-82
2021/01/31 09:28:07;;;;;;;12.60;11.03;;;9.10;72.10;;;;;;5039875;28;20491;-82
2021/01/31 09:30:34;;;;;;;10.50;9.40;;;9.10;72.00;;;;;;5061135;28;20455;-87
2021/01/31 09:33:14;;;;;;;10.10;9.10;;;9.10;70.10;;;;;;5058311;28;20463;-82
2021/01/31 09:35:40;;;;;;;12.40;9.83;;;9.20;70.50;;;;;;5058021;28;20416;-80
2021/01/31 09:38:20;;;;;;;265.50;145.17;;;9.50;67.50;;;;;;5061449;28;20404;-81
2021/01/31 09:40:47;;;;;;;90.77;58.47;;;9.80;68.10;;;;;;5070429;28;20423;-82
2021/01/31 09:43:19;;;;;;;13.30;11.47;;;9.90;66.90;;;;;;5074784;28;20403;-80
2021/01/31 09:45:49;;;;;;;9.70;8.70;;;10.00;64.90;;;;;;5074911;28;20460;-80
2021/01/31 09:48:22;;;;;;;9.27;8.40;;;10.00;61.70;;;;;;5072941;28;20415;-86
2021/01/31 09:50:53;;;;;;;8.80;7.90;;;9.80;63.10;;;;;;5082873;28;20537;-80
2021/01/31 09:53:32;;;;;;;9.20;8.30;;;9.80;63.10;;;;;;5066642;28;20430;-79
2021/01/31 09:56:00;;;;;;;9.70;8.80;;;9.80;64.40;;;;;;5060425;28;20511;-80
2021/01/31 09:58:35;;;;;;;10.23;9.13;;;9.70;64.70;;;;;;5070547;28;20419;-82
2021/01/31 10:01:29;;;;;;;9.93;9.13;;;9.80;64.60;;;;;;5063839;28;20427;-81
2021/01/31 10:04:01;;;;;;;9.63;8.83;;;9.90;62.80;;;;;;5058089;28;20786;-80
2021/01/31 10:06:38;;;;;;;10.80;9.70;;;9.80;63.20;;;;;;5063822;28;20410;-80
2021/01/31 10:09:04;;;;;;;10.50;9.50;;;9.70;61.80;;;;;;5064027;28;20459;-84
2021/01/31 10:11:33;;;;;;;10.57;9.57;;;9.60;62.10;;;;;;5062284;28;20438;-79
2021/01/31 10:14:00;;;;;;;10.77;9.67;;;9.40;62.80;;;;;;5064043;28;20165;-80
2021/01/31 10:16:31;;;;;;;11.00;9.90;;;9.30;64.60;;;;;;5062155;28;20399;-80
2021/01/31 10:19:09;;;;;;;9.87;8.97;;;9.30;64.70;;;;;;5072982;28;20415;-80
2021/01/31 10:21:38;;;;;;;11.33;10.30;;;9.30;67.10;;;;;;5073609;28;20416;-79
2021/01/31 10:24:16;;;;;;;10.87;9.87;;;9.40;66.10;;;;;;5075270;28;20965;-79
2021/01/31 10:26:42;;;;;;;10.43;9.37;;;9.40;64.80;;;;;;5071919;28;20437;-79
2021/01/31 10:29:08;;;;;;;10.27;9.27;;;9.50;63.70;;;;;;5072748;28;20487;-78
2021/01/31 10:31:34;;;;;;;10.10;9.20;;;9.60;64.30;;;;;;5074086;28;20490;-78
2021/01/31 10:34:03;;;;;;;9.80;8.87;;;9.70;65.70;;;;;;5074918;28;20937;-78
2021/01/31 10:36:37;;;;;;;10.33;9.23;;;9.80;63.80;;;;;;5072903;28;20302;-79
2021/01/31 10:39:25;;;;;;;9.60;8.80;;;9.90;63.70;;;;;;5071592;28;20464;-79
2021/01/31 10:41:52;;;;;;;9.40;8.40;;;9.90;64.30;;;;;;5053370;28;20391;-78
2021/01/31 10:44:32;;;;;;;10.17;9.17;;;10.00;62.30;;;;;;5052209;28;20893;-79
2021/01/31 10:46:58;;;;;;;10.10;9.20;;;10.10;61.80;;;;;;5066348;28;20427;-80
2021/01/31 10:49:23;;;;;;;9.60;8.70;;;10.30;61.20;;;;;;5072805;28;20474;-78
2021/01/31 10:51:50;;;;;;;206.63;115.93;;;10.40;62.80;;;;;;5073418;28;20230;-77
2021/01/31 10:54:18;;;;;;;207.47;128.17;;;10.70;62.80;;;;;;5073512;28;20179;-82
2021/01/31 10:56:44;;;;;;;12.33;10.80;;;10.80;61.90;;;;;;5074273;28;20407;-78
2021/01/31 10:59:10;;;;;;;9.83;8.93;;;10.70;60.10;;;;;;5070653;28;20432;-78
2021/01/31 11:01:36;;;;;;;9.70;8.70;;;10.90;59.60;;;;;;5073549;28;20238;-78
2021/01/31 11:04:02;;;;;;;9.47;8.67;;;11.10;60.20;;;;;;5074122;28;20429;-78
2021/01/31 11:06:28;;;;;;;9.33;8.53;;;11.10;58.80;;;;;;5071769;28;20182;-78
2021/01/31 11:08:55;;;;;;;9.43;8.63;;;11.20;58.80;;;;;;5074222;28;20413;-77
2021/01/31 11:11:22;;;;;;;11.17;10.17;;;11.10;58.60;;;;;;5073221;28;20412;-78
2021/01/31 11:13:48;;;;;;;9.77;8.87;;;11.10;57.90;;;;;;5072588;28;20408;-77
2021/01/31 11:16:14;;;;;;;9.60;8.60;;;11.00;57.80;;;;;;5073858;28;20422;-78
2021/01/31 11:18:40;;;;;;;9.63;8.80;;;11.00;58.10;;;;;;5072031;28;20440;-77
2021/01/31 11:21:06;;;;;;;10.07;9.17;;;10.90;58.40;;;;;;5071331;28;20805;-78
2021/01/31 11:23:32;;;;;;;9.57;8.70;;;10.80;57.60;;;;;;5067530;28;20428;-78
2021/01/31 11:25:58;;;;;;;9.60;8.80;;;10.70;59.00;;;;;;5073732;28;20392;-78
2021/01/31 11:28:23;;;;;;;10.23;9.33;;;10.70;59.50;;;;;;5068883;28;20218;-78
2021/01/31 11:30:49;;;;;;;72.40;43.13;;;10.60;60.40;;;;;;5053485;28;20190;-77
2021/01/31 11:33:15;;;;;;;35.23;26.60;;;10.70;61.70;;;;;;5053421;28;20191;-79
2021/01/31 11:35:41;;;;;;;9.77;8.97;;;10.60;61.80;;;;;;5050838;28;20774;-79
2021/01/31 11:38:07;;;;;;;10.60;9.60;;;10.60;61.20;;;;;;5004679;28;20417;-79
2021/01/31 11:40:34;;;;;;;10.80;9.80;;;10.70;61.80;;;;;;5047237;28;20422;-78
2021/01/31 11:42:59;;;;;;;10.70;9.60;;;10.60;59.30;;;;;;5037018;28;20425;-80
2021/01/31 11:45:27;;;;;;;11.20;10.07;;;10.30;59.60;;;;;;5040349;28;20548;-83
2021/01/31 11:47:54;;;;;;;10.10;9.20;;;10.30;59.80;;;;;;5026992;28;20936;-79
2021/01/31 11:50:20;;;;;;;10.70;9.70;;;10.20;59.30;;;;;;5046168;28;20815;-78
2021/01/31 11:52:46;;;;;;;10.60;9.60;;;10.20;59.50;;;;;;5036016;28;20413;-79
2021/01/31 11:55:13;;;;;;;10.50;9.40;;;10.10;60.10;;;;;;5049162;28;20503;-79
2021/01/31 11:57:39;;;;;;;11.00;10.07;;;10.10;60.00;;;;;;5045380;28;20421;-79
2021/01/31 12:00:07;;;;;;;12.87;11.63;;;10.20;61.70;;;;;;5036680;28;20440;-82
2021/01/31 12:02:33;;;;;;;10.53;9.53;;;10.30;61.80;;;;;;5032347;28;20249;-82
2021/01/31 12:05:00;;;;;;;10.77;9.80;;;10.40;60.50;;;;;;5015346;28;20496;-83
2021/01/31 12:07:26;;;;;;;11.20;9.97;;;10.40;60.30;;;;;;5015360;28;20415;-81
2021/01/31 12:09:52;;;;;;;12.20;10.80;;;10.40;61.30;;;;;;5026584;28;20449;-77
2021/01/31 12:12:18;;;;;;;10.70;9.70;;;10.50;61.50;;;;;;5025449;28;20904;-77
2021/01/31 12:14:44;;;;;;;11.30;10.30;;;10.30;61.40;;;;;;5038607;28;20184;-78
2021/01/31 12:17:10;;;;;;;12.40;11.20;;;10.30;61.90;;;;;;5042229;28;20995;-77
2021/01/31 12:19:36;;;;;;;11.63;10.50;;;10.30;62.30;;;;;;5039898;28;20687;-78
2021/01/31 12:22:02;;;;;;;11.33;10.20;;;10.30;62.50;;;;;;5022330;28;20194;-79
2021/01/31 12:24:28;;;;;;;13.10;11.80;;;10.30;61.40;;;;;;5022362;28;20417;-80
2021/01/31 12:26:54;;;;;;;12.77;11.47;;;10.40;62.70;;;;;;5032206;28;20417;-78
2021/01/31 12:29:19;;;;;;;12.10;11.00;;;10.50;61.10;;;;;;5036955;28;20228;-78
2021/01/31 12:31:46;;;;;;;12.47;11.27;;;10.60;61.80;;;;;;5041536;28;20202;-79
2021/01/31 12:34:12;;;;;;;11.00;10.00;;;10.70;61.90;;;;;;5042534;28;20177;-80
2021/01/31 12:36:40;;;;;;;10.90;9.80;;;10.70;61.50;;;;;;5039536;28;20425;-79
2021/01/31 12:39:06;;;;;;;10.67;9.67;;;10.60;63.70;;;;;;5022555;28;20793;-78
2021/01/31 12:41:32;;;;;;;12.00;10.80;;;10.60;62.00;;;;;;5041434;28;20446;-79
2021/01/31 12:43:58;;;;;;;12.17;10.97;;;10.80;60.80;;;;;;5007331;28;20427;-77
2021/01/31 12:46:25;;;;;;;12.47;11.27;;;10.80;59.70;;;;;;5044990;28;20413;-76
2021/01/31 12:48:51;;;;;;;11.07;10.00;;;10.70;60.40;;;;;;5050970;28;20729;-76
2021/01/31 12:51:17;;;;;;;13.23;11.83;;;10.60;60.30;;;;;;5034192;28;20500;-76
2021/01/31 12:53:42;;;;;;;11.47;10.37;;;10.60;60.80;;;;;;5041593;28;20452;-77
2021/01/31 12:56:08;;;;;;;11.10;10.00;;;10.40;60.30;;;;;;5051416;28;20623;-77
2021/01/31 12:58:34;;;;;;;10.47;9.37;;;10.30;61.70;;;;;;5044094;28;20179;-81
2021/01/31 13:01:00;;;;;;;12.40;10.33;;;10.20;60.60;;;;;;5032740;28;20217;-78
2021/01/31 13:03:25;;;;;;;12.20;10.90;;;10.20;70.60;;;;;;5035751;28;20216;-77
2021/01/31 13:05:51;;;;;;;10.37;9.37;;;10.20;65.40;;;;;;5031384;28;20190;-77
2021/01/31 13:08:17;;;;;;;11.13;10.03;;;10.10;63.00;;;;;;5046170;28;20184;-78
2021/01/31 13:10:43;;;;;;;10.33;9.43;;;10.10;62.20;;;;;;5033132;28;20627;-76
2021/01/31 13:13:09;;;;;;;10.83;9.90;;;10.10;62.20;;;;;;5041435;28;20653;-78
2021/01/31 13:15:35;;;;;;;11.37;10.37;;;10.00;61.40;;;;;;5050490;28;20552;-73